sensor_id;sensor_type;location;lat;lon;timestamp;temperature;humidity
11122;DHT22;5615;49.304;10.576;2023-04-01T00:01:56;8.30;99.90
11122;DHT22;5615;49.304;10.576;2023-04-01T00:04:22;8.30;99.90
11122;DHT22;5615;49.304;10.576;2023-04-01T00:06:49;8.20;99.90
11122;DHT22;5615;49.304;10.576;2023-04-01T00:09:17;8.20;99.90
11122;DHT22;5615;49.304;10.576;2023-04-01T00:11:43;8.10;99.90
11122;DHT22;5615;49.304;10.576;2023-04-01T00:14:12;8.00;99.90
11122;DHT22;5615;49.304;10.576;2023-04-01T00:16:38;8.00;99.90
11122;DHT22;5615;49.304;10.576;2023-04-01T00:19:05;8.00;99.90
11122;DHT22;5615;49.304;10.576;2023-04-01T00:21:32;8.00;99.90
11122;DHT22;5615;49.304;10.576;2023-04-01T00:23:59;8.00;99.90
11122;DHT22;5615;49.304;10.576;2023-04-01T00:26:25;8.00;99.90
11122;DHT22;5615;49.304;10.576;2023-04-01T00:28:52;8.00;99.90
11122;DHT22;5615;49.304;10.576;2023-04-01T00:31:20;7.90;99.90
11122;DHT22;5615;49.304;10.576;2023-04-01T00:33:47;8.00;99.90
11122;DHT22;5615;49.304;10.576;2023-04-01T00:36:16;8.10;99.90
11122;DHT22;5615;49.304;10.576;2023-04-01T00:38:43;8.10;99.90
11122;DHT22;5615;49.304;10.576;2023-04-01T00:41:11;8.20;99.90
11122;DHT22;5615;49.304;10.576;2023-04-01T00:43:40;8.10;99.90
11122;DHT22;5615;49.304;10.576;2023-04-01T00:46:07;8.20;99.90
11122;DHT22;5615;49.304;10.576;2023-04-01T00:48:38;8.20;99.90
11122;DHT22;5615;49.304;10.576;2023-04-01T00:51:08;8.20;99.90
11122;DHT22;5615;49.304;10.576;2023-04-01T00:53:38;8.20;99.90
11122;DHT22;5615;49.304;10.576;2023-04-01T00:56:10;8.20;99.90
11122;DHT22;5615;49.304;10.576;2023-04-01T00:58:40;8.30;99.90
11122;DHT22;5615;49.304;10.576;2023-04-01T01:01:08;8.20;99.90
11122;DHT22;5615;49.304;10.576;2023-04-01T01:03:37;8.30;99.90
11122;DHT22;5615;49.304;10.576;2023-04-01T01:06:15;8.30;99.90
11122;DHT22;5615;49.304;10.576;2023-04-01T01:09:06;8.30;99.90
11122;DHT22;5615;49.304;10.576;2023-04-01T01:11:37;8.30;99.90
11122;DHT22;5615;49.304;10.576;2023-04-01T01:14:12;8.30;99.90
11122;DHT22;5615;49.304;10.576;2023-04-01T01:16:44;8.30;99.90
11122;DHT22;5615;49.304;10.576;2023-04-01T01:19:29;8.20;99.90
11122;DHT22;5615;49.304;10.576;2023-04-01T01:22:10;8.20;99.90
11122;DHT22;5615;49.304;10.576;2023-04-01T01:24:51;8.30;99.90
11122;DHT22;5615;49.304;10.576;2023-04-01T01:27:21;8.20;99.90
11122;DHT22;5615;49.304;10.576;2023-04-01T01:33:06;8.20;99.90
11122;DHT22;5615;49.304;10.576;2023-04-01T01:35:38;8.20;99.90
11122;DHT22;5615;49.304;10.576;2023-04-01T01:38:09;8.20;99.90
11122;DHT22;5615;49.304;10.576;2023-04-01T01:40:40;8.20;99.90
11122;DHT22;5615;49.304;10.576;2023-04-01T01:43:11;8.20;99.90
11122;DHT22;5615;49.304;10.576;2023-04-01T01:45:43;8.20;99.90
11122;DHT22;5615;49.304;10.576;2023-04-01T01:48:11;8.10;99.90
11122;DHT22;5615;49.304;10.576;2023-04-01T01:50:40;8.10;99.90
11122;DHT22;5615;49.304;10.576;2023-04-01T01:53:09;8.20;99.90
11122;DHT22;5615;49.304;10.576;2023-04-01T01:55:38;8.20;99.90
11122;DHT22;5615;49.304;10.576;2023-04-01T01:58:10;8.10;99.90
11122;DHT22;5615;49.304;10.576;2023-04-01T02:00:38;8.20;99.90
11122;DHT22;5615;49.304;10.576;2023-04-01T02:03:05;8.20;99.90
11122;DHT22;5615;49.304;10.576;2023-04-01T02:05:32;8.20;99.90
11122;DHT22;5615;49.304;10.576;2023-04-01T02:08:06;8.20;99.90
11122;DHT22;5615;49.304;10.576;2023-04-01T02:10:36;8.20;99.90
11122;DHT22;5615;49.304;10.576;2023-04-01T02:13:08;8.20;99.90
11122;DHT22;5615;49.304;10.576;2023-04-01T02:15:41;8.10;99.90
11122;DHT22;5615;49.304;10.576;2023-04-01T02:18:09;8.10;99.90
11122;DHT22;5615;49.304;10.576;2023-04-01T02:20:37;8.10;99.90
11122;DHT22;5615;49.304;10.576;2023-04-01T02:23:07;8.10;99.90
11122;DHT22;5615;49.304;10.576;2023-04-01T02:25:36;8.10;99.90
11122;DHT22;5615;49.304;10.576;2023-04-01T02:28:05;8.10;99.90
11122;DHT22;5615;49.304;10.576;2023-04-01T02:30:34;8.10;99.90
11122;DHT22;5615;49.304;10.576;2023-04-01T02:33:02;8.10;99.90
11122;DHT22;5615;49.304;10.576;2023-04-01T02:35:29;8.10;99.90
11122;DHT22;5615;49.304;10.576;2023-04-01T02:37:55;8.10;99.90
11122;DHT22;5615;49.304;10.576;2023-04-01T02:40:24;8.10;99.90
11122;DHT22;5615;49.304;10.576;2023-04-01T02:42:50;8.20;99.90
11122;DHT22;5615;49.304;10.576;2023-04-01T02:45:17;8.20;99.90
11122;DHT22;5615;49.304;10.576;2023-04-01T02:47:44;8.20;99.90
11122;DHT22;5615;49.304;10.576;2023-04-01T02:50:11;8.10;99.90
11122;DHT22;5615;49.304;10.576;2023-04-01T02:52:37;8.10;99.90
11122;DHT22;5615;49.304;10.576;2023-04-01T02:55:05;8.10;99.90
11122;DHT22;5615;49.304;10.576;2023-04-01T02:57:33;8.20;99.90
11122;DHT22;5615;49.304;10.576;2023-04-01T02:59:59;8.20;99.90
11122;DHT22;5615;49.304;10.576;2023-04-01T03:02:26;8.10;99.90
11122;DHT22;5615;49.304;10.576;2023-04-01T03:04:53;8.10;99.90
11122;DHT22;5615;49.304;10.576;2023-04-01T03:07:19;8.10;99.90
11122;DHT22;5615;49.304;10.576;2023-04-01T03:09:46;8.10;99.90
11122;DHT22;5615;49.304;10.576;2023-04-01T03:12:12;8.10;99.90
11122;DHT22;5615;49.304;10.576;2023-04-01T03:14:40;8.10;99.90
11122;DHT22;5615;49.304;10.576;2023-04-01T03:17:07;8.00;99.90
11122;DHT22;5615;49.304;10.576;2023-04-01T03:19:33;8.00;99.90
11122;DHT22;5615;49.304;10.576;2023-04-01T03:22:00;8.00;99.90
11122;DHT22;5615;49.304;10.576;2023-04-01T03:24:26;8.10;99.90
11122;DHT22;5615;49.304;10.576;2023-04-01T03:26:53;8.00;99.90
11122;DHT22;5615;49.304;10.576;2023-04-01T03:29:20;8.00;99.90
11122;DHT22;5615;49.304;10.576;2023-04-01T03:31:47;8.10;99.90
11122;DHT22;5615;49.304;10.576;2023-04-01T03:34:14;8.00;99.90
11122;DHT22;5615;49.304;10.576;2023-04-01T03:36:41;7.90;99.90
11122;DHT22;5615;49.304;10.576;2023-04-01T03:39:07;7.80;99.90
11122;DHT22;5615;49.304;10.576;2023-04-01T03:41:35;7.80;99.90
11122;DHT22;5615;49.304;10.576;2023-04-01T03:44:02;7.70;99.90
11122;DHT22;5615;49.304;10.576;2023-04-01T03:46:29;7.70;99.90
11122;DHT22;5615;49.304;10.576;2023-04-01T03:48:57;7.80;99.90
11122;DHT22;5615;49.304;10.576;2023-04-01T03:51:23;7.80;99.90
11122;DHT22;5615;49.304;10.576;2023-04-01T03:53:50;7.70;99.90
11122;DHT22;5615;49.304;10.576;2023-04-01T03:56:16;7.70;99.90
11122;DHT22;5615;49.304;10.576;2023-04-01T03:58:43;7.80;99.90
11122;DHT22;5615;49.304;10.576;2023-04-01T04:01:14;7.70;99.90
11122;DHT22;5615;49.304;10.576;2023-04-01T04:03:41;7.70;99.90
11122;DHT22;5615;49.304;10.576;2023-04-01T04:06:12;7.70;99.90
11122;DHT22;5615;49.304;10.576;2023-04-01T04:08:39;7.70;99.90
11122;DHT22;5615;49.304;10.576;2023-04-01T04:11:06;7.70;99.90
11122;DHT22;5615;49.304;10.576;2023-04-01T04:13:32;7.70;99.90
11122;DHT22;5615;49.304;10.576;2023-04-01T04:15:59;7.70;99.90
11122;DHT22;5615;49.304;10.576;2023-04-01T04:18:25;7.70;99.90
11122;DHT22;5615;49.304;10.576;2023-04-01T04:20:52;7.70;99.90
11122;DHT22;5615;49.304;10.576;2023-04-01T04:23:20;7.70;99.90
11122;DHT22;5615;49.304;10.576;2023-04-01T04:25:55;7.70;99.90
11122;DHT22;5615;49.304;10.576;2023-04-01T04:28:22;7.70;99.90
11122;DHT22;5615;49.304;10.576;2023-04-01T04:30:48;7.70;99.90
11122;DHT22;5615;49.304;10.576;2023-04-01T04:33:15;7.70;99.90
11122;DHT22;5615;49.304;10.576;2023-04-01T04:35:42;7.70;99.90
11122;DHT22;5615;49.304;10.576;2023-04-01T04:38:09;7.70;99.90
11122;DHT22;5615;49.304;10.576;2023-04-01T04:40:37;7.70;99.90
11122;DHT22;5615;49.304;10.576;2023-04-01T04:43:05;7.70;99.90
11122;DHT22;5615;49.304;10.576;2023-04-01T04:45:32;7.70;99.90
11122;DHT22;5615;49.304;10.576;2023-04-01T04:47:58;7.70;99.90
11122;DHT22;5615;49.304;10.576;2023-04-01T04:50:25;7.70;99.90
11122;DHT22;5615;49.304;10.576;2023-04-01T04:52:51;7.60;99.90
11122;DHT22;5615;49.304;10.576;2023-04-01T04:55:18;7.60;99.90
11122;DHT22;5615;49.304;10.576;2023-04-01T04:57:46;7.60;99.90
11122;DHT22;5615;49.304;10.576;2023-04-01T05:00:13;7.60;99.90
11122;DHT22;5615;49.304;10.576;2023-04-01T05:02:40;7.60;99.90
11122;DHT22;5615;49.304;10.576;2023-04-01T05:05:07;7.60;99.90
11122;DHT22;5615;49.304;10.576;2023-04-01T05:07:34;7.60;99.90
11122;DHT22;5615;49.304;10.576;2023-04-01T05:10:00;7.60;99.90
11122;DHT22;5615;49.304;10.576;2023-04-01T05:12:27;7.60;99.90
11122;DHT22;5615;49.304;10.576;2023-04-01T05:14:55;7.60;99.90
11122;DHT22;5615;49.304;10.576;2023-04-01T05:17:22;7.60;99.90
11122;DHT22;5615;49.304;10.576;2023-04-01T05:19:48;7.60;99.90
11122;DHT22;5615;49.304;10.576;2023-04-01T05:22:15;7.60;99.90
11122;DHT22;5615;49.304;10.576;2023-04-01T05:24:41;7.70;99.90
11122;DHT22;5615;49.304;10.576;2023-04-01T05:27:08;7.60;99.90
11122;DHT22;5615;49.304;10.576;2023-04-01T05:29:35;7.60;99.90
11122;DHT22;5615;49.304;10.576;2023-04-01T05:32:03;7.70;99.90
11122;DHT22;5615;49.304;10.576;2023-04-01T05:34:29;7.60;99.90
11122;DHT22;5615;49.304;10.576;2023-04-01T05:36:56;7.60;99.90
11122;DHT22;5615;49.304;10.576;2023-04-01T05:39:22;7.60;99.90
11122;DHT22;5615;49.304;10.576;2023-04-01T05:41:49;7.60;99.90
11122;DHT22;5615;49.304;10.576;2023-04-01T05:44:16;7.70;99.90
11122;DHT22;5615;49.304;10.576;2023-04-01T05:46:42;7.70;99.90
11122;DHT22;5615;49.304;10.576;2023-04-01T05:49:10;7.70;99.90
11122;DHT22;5615;49.304;10.576;2023-04-01T05:51:37;7.70;99.90
11122;DHT22;5615;49.304;10.576;2023-04-01T05:54:04;7.80;99.90
11122;DHT22;5615;49.304;10.576;2023-04-01T05:56:31;7.80;99.90
11122;DHT22;5615;49.304;10.576;2023-04-01T05:58:58;7.70;99.90
11122;DHT22;5615;49.304;10.576;2023-04-01T06:01:24;7.90;99.90
11122;DHT22;5615;49.304;10.576;2023-04-01T06:03:51;7.90;99.90
11122;DHT22;5615;49.304;10.576;2023-04-01T06:06:23;8.00;99.90
11122;DHT22;5615;49.304;10.576;2023-04-01T06:08:51;7.90;99.90
11122;DHT22;5615;49.304;10.576;2023-04-01T06:11:25;8.00;99.90
11122;DHT22;5615;49.304;10.576;2023-04-01T06:14:14;8.00;99.90
11122;DHT22;5615;49.304;10.576;2023-04-01T06:16:58;8.00;99.90
11122;DHT22;5615;49.304;10.576;2023-04-01T06:19:36;8.00;99.90
11122;DHT22;5615;49.304;10.576;2023-04-01T06:22:29;8.00;99.90
11122;DHT22;5615;49.304;10.576;2023-04-01T06:25:29;8.10;99.90
11122;DHT22;5615;49.304;10.576;2023-04-01T06:28:14;8.20;99.90
11122;DHT22;5615;49.304;10.576;2023-04-01T06:30:47;8.20;99.90
11122;DHT22;5615;49.304;10.576;2023-04-01T06:33:24;8.40;99.90
11122;DHT22;5615;49.304;10.576;2023-04-01T06:39:03;8.50;99.90
11122;DHT22;5615;49.304;10.576;2023-04-01T06:42:00;8.70;99.90
11122;DHT22;5615;49.304;10.576;2023-04-01T06:44:36;8.70;99.90
11122;DHT22;5615;49.304;10.576;2023-04-01T06:47:23;8.80;99.90
11122;DHT22;5615;49.304;10.576;2023-04-01T06:49:59;9.00;99.90
11122;DHT22;5615;49.304;10.576;2023-04-01T06:52:38;8.90;99.90
11122;DHT22;5615;49.304;10.576;2023-04-01T06:55:24;8.70;99.90
11122;DHT22;5615;49.304;10.576;2023-04-01T06:57:54;8.70;99.90
11122;DHT22;5615;49.304;10.576;2023-04-01T07:00:28;8.70;99.90
11122;DHT22;5615;49.304;10.576;2023-04-01T07:03:02;8.70;99.90
11122;DHT22;5615;49.304;10.576;2023-04-01T07:05:32;8.80;99.90
11122;DHT22;5615;49.304;10.576;2023-04-01T07:08:03;8.90;99.90
11122;DHT22;5615;49.304;10.576;2023-04-01T07:10:37;8.90;99.90
11122;DHT22;5615;49.304;10.576;2023-04-01T07:13:13;9.00;99.90
11122;DHT22;5615;49.304;10.576;2023-04-01T07:15:42;9.00;99.90
11122;DHT22;5615;49.304;10.576;2023-04-01T07:18:14;9.20;99.90
11122;DHT22;5615;49.304;10.576;2023-04-01T07:20:42;9.10;99.90
11122;DHT22;5615;49.304;10.576;2023-04-01T07:23:15;9.10;99.90
11122;DHT22;5615;49.304;10.576;2023-04-01T07:25:47;9.20;99.90
11122;DHT22;5615;49.304;10.576;2023-04-01T07:28:15;9.30;99.90
11122;DHT22;5615;49.304;10.576;2023-04-01T07:30:50;9.40;99.90
11122;DHT22;5615;49.304;10.576;2023-04-01T07:33:22;9.70;99.90
11122;DHT22;5615;49.304;10.576;2023-04-01T07:35:56;9.70;99.90
11122;DHT22;5615;49.304;10.576;2023-04-01T07:38:32;9.70;99.90
11122;DHT22;5615;49.304;10.576;2023-04-01T07:41:09;9.60;99.90
11122;DHT22;5615;49.304;10.576;2023-04-01T07:43:45;9.30;99.90
11122;DHT22;5615;49.304;10.576;2023-04-01T07:46:30;9.50;99.90
11122;DHT22;5615;49.304;10.576;2023-04-01T07:49:04;9.50;99.90
11122;DHT22;5615;49.304;10.576;2023-04-01T07:51:39;9.40;99.90
11122;DHT22;5615;49.304;10.576;2023-04-01T07:54:11;9.50;99.90
11122;DHT22;5615;49.304;10.576;2023-04-01T07:56:42;9.60;99.90
11122;DHT22;5615;49.304;10.576;2023-04-01T07:59:16;9.60;99.90
11122;DHT22;5615;49.304;10.576;2023-04-01T08:01:52;9.40;99.90
11122;DHT22;5615;49.304;10.576;2023-04-01T08:04:27;9.50;99.90
11122;DHT22;5615;49.304;10.576;2023-04-01T08:07:06;9.50;99.90
11122;DHT22;5615;49.304;10.576;2023-04-01T08:09:40;9.70;99.90
11122;DHT22;5615;49.304;10.576;2023-04-01T08:12:21;9.60;99.90
11122;DHT22;5615;49.304;10.576;2023-04-01T08:14:59;9.70;99.90
11122;DHT22;5615;49.304;10.576;2023-04-01T08:17:32;9.80;99.90
11122;DHT22;5615;49.304;10.576;2023-04-01T08:20:14;9.80;99.90
11122;DHT22;5615;49.304;10.576;2023-04-01T08:22:47;9.90;99.90
11122;DHT22;5615;49.304;10.576;2023-04-01T08:25:19;9.80;99.90
11122;DHT22;5615;49.304;10.576;2023-04-01T08:27:50;9.70;99.90
11122;DHT22;5615;49.304;10.576;2023-04-01T08:30:20;9.50;99.90
11122;DHT22;5615;49.304;10.576;2023-04-01T08:32:49;9.70;99.90
11122;DHT22;5615;49.304;10.576;2023-04-01T08:35:25;9.70;99.90
11122;DHT22;5615;49.304;10.576;2023-04-01T08:37:54;9.70;99.90
11122;DHT22;5615;49.304;10.576;2023-04-01T08:40:55;9.60;99.90
11122;DHT22;5615;49.304;10.576;2023-04-01T08:43:39;9.60;99.90
11122;DHT22;5615;49.304;10.576;2023-04-01T08:46:28;9.60;99.90
11122;DHT22;5615;49.304;10.576;2023-04-01T08:49:10;9.60;99.90
11122;DHT22;5615;49.304;10.576;2023-04-01T08:52:10;9.50;99.90
11122;DHT22;5615;49.304;10.576;2023-04-01T08:57:50;9.50;99.90
11122;DHT22;5615;49.304;10.576;2023-04-01T09:00:29;9.60;99.90
11122;DHT22;5615;49.304;10.576;2023-04-01T09:03:19;9.50;99.90
11122;DHT22;5615;49.304;10.576;2023-04-01T09:08:58;9.60;99.90
11122;DHT22;5615;49.304;10.576;2023-04-01T09:11:33;9.50;99.90
11122;DHT22;5615;49.304;10.576;2023-04-01T09:14:19;9.20;99.90
11122;DHT22;5615;49.304;10.576;2023-04-01T09:17:17;9.20;99.90
11122;DHT22;5615;49.304;10.576;2023-04-01T09:19:56;8.90;99.90
11122;DHT22;5615;49.304;10.576;2023-04-01T09:22:38;8.90;99.90
11122;DHT22;5615;49.304;10.576;2023-04-01T09:25:34;8.90;99.90
11122;DHT22;5615;49.304;10.576;2023-04-01T09:28:10;8.90;99.90
11122;DHT22;5615;49.304;10.576;2023-04-01T09:31:00;8.70;99.90
11122;DHT22;5615;49.304;10.576;2023-04-01T09:34:06;8.70;99.90
11122;DHT22;5615;49.304;10.576;2023-04-01T09:36:44;8.60;99.90
11122;DHT22;5615;49.304;10.576;2023-04-01T09:39:34;8.50;99.90
11122;DHT22;5615;49.304;10.576;2023-04-01T09:42:21;8.30;99.90
11122;DHT22;5615;49.304;10.576;2023-04-01T09:44:58;8.20;99.90
11122;DHT22;5615;49.304;10.576;2023-04-01T09:47:47;8.10;99.90
11122;DHT22;5615;49.304;10.576;2023-04-01T09:50:30;8.10;99.90
11122;DHT22;5615;49.304;10.576;2023-04-01T09:53:07;8.30;99.90
11122;DHT22;5615;49.304;10.576;2023-04-01T09:56:01;8.30;99.90
11122;DHT22;5615;49.304;10.576;2023-04-01T10:02:03;8.50;99.90
11122;DHT22;5615;49.304;10.576;2023-04-01T10:05:13;8.70;99.90
11122;DHT22;5615;49.304;10.576;2023-04-01T10:08:20;8.80;99.90
11122;DHT22;5615;49.304;10.576;2023-04-01T10:11:22;8.80;99.90
11122;DHT22;5615;49.304;10.576;2023-04-01T10:14:10;8.80;99.90
11122;DHT22;5615;49.304;10.576;2023-04-01T10:17:01;8.80;99.90
11122;DHT22;5615;49.304;10.576;2023-04-01T10:20:02;8.80;99.90
11122;DHT22;5615;49.304;10.576;2023-04-01T10:22:51;8.60;99.90
11122;DHT22;5615;49.304;10.576;2023-04-01T10:28:52;8.60;99.90
11122;DHT22;5615;49.304;10.576;2023-04-01T10:31:41;8.50;99.90
11122;DHT22;5615;49.304;10.576;2023-04-01T10:34:31;8.30;99.90
11122;DHT22;5615;49.304;10.576;2023-04-01T10:37:15;8.40;99.90
11122;DHT22;5615;49.304;10.576;2023-04-01T10:40:23;8.50;99.90
11122;DHT22;5615;49.304;10.576;2023-04-01T10:43:09;8.40;99.90
11122;DHT22;5615;49.304;10.576;2023-04-01T10:52:07;8.70;99.90
11122;DHT22;5615;49.304;10.576;2023-04-01T10:54:46;8.80;99.90
11122;DHT22;5615;49.304;10.576;2023-04-01T10:57:34;8.90;99.90
11122;DHT22;5615;49.304;10.576;2023-04-01T11:00:39;8.80;99.90
11122;DHT22;5615;49.304;10.576;2023-04-01T11:03:46;8.70;99.90
11122;DHT22;5615;49.304;10.576;2023-04-01T11:06:53;8.80;99.90
11122;DHT22;5615;49.304;10.576;2023-04-01T11:09:44;9.10;99.90
11122;DHT22;5615;49.304;10.576;2023-04-01T11:12:36;9.10;99.90
11122;DHT22;5615;49.304;10.576;2023-04-01T11:15:35;9.20;99.90
11122;DHT22;5615;49.304;10.576;2023-04-01T11:18:35;9.20;99.90
11122;DHT22;5615;49.304;10.576;2023-04-01T11:21:33;8.90;99.90
11122;DHT22;5615;49.304;10.576;2023-04-01T11:24:21;8.50;99.90
11122;DHT22;5615;49.304;10.576;2023-04-01T11:27:04;8.60;99.90
11122;DHT22;5615;49.304;10.576;2023-04-01T11:32:43;8.50;99.90
11122;DHT22;5615;49.304;10.576;2023-04-01T11:38:20;8.70;99.90
11122;DHT22;5615;49.304;10.576;2023-04-01T11:40:55;8.50;99.90
11122;DHT22;5615;49.304;10.576;2023-04-01T11:43:29;8.70;99.90
11122;DHT22;5615;49.304;10.576;2023-04-01T11:46:05;8.70;99.90
11122;DHT22;5615;49.304;10.576;2023-04-01T11:48:50;8.70;99.90
11122;DHT22;5615;49.304;10.576;2023-04-01T11:51:38;8.70;99.90
11122;DHT22;5615;49.304;10.576;2023-04-01T11:54:22;8.60;99.90
11122;DHT22;5615;49.304;10.576;2023-04-01T11:57:02;8.60;99.90
11122;DHT22;5615;49.304;10.576;2023-04-01T11:59:57;8.50;99.90
11122;DHT22;5615;49.304;10.576;2023-04-01T12:02:37;8.60;99.90
11122;DHT22;5615;49.304;10.576;2023-04-01T12:05:38;8.50;99.90
11122;DHT22;5615;49.304;10.576;2023-04-01T12:08:15;8.40;99.90
11122;DHT22;5615;49.304;10.576;2023-04-01T12:10:55;8.50;99.90
11122;DHT22;5615;49.304;10.576;2023-04-01T12:13:31;8.50;99.90
11122;DHT22;5615;49.304;10.576;2023-04-01T12:16:09;8.50;99.90
11122;DHT22;5615;49.304;10.576;2023-04-01T12:18:41;8.40;99.90
11122;DHT22;5615;49.304;10.576;2023-04-01T12:21:18;8.40;99.90
11122;DHT22;5615;49.304;10.576;2023-04-01T12:24:23;8.60;99.90
11122;DHT22;5615;49.304;10.576;2023-04-01T12:26:59;8.60;99.90
11122;DHT22;5615;49.304;10.576;2023-04-01T12:29:53;8.70;99.90
11122;DHT22;5615;49.304;10.576;2023-04-01T12:32:31;8.70;99.90
11122;DHT22;5615;49.304;10.576;2023-04-01T12:35:18;8.70;99.90
11122;DHT22;5615;49.304;10.576;2023-04-01T12:37:55;8.70;99.90
11122;DHT22;5615;49.304;10.576;2023-04-01T12:40:40;8.80;99.90
11122;DHT22;5615;49.304;10.576;2023-04-01T12:43:29;8.90;99.90
11122;DHT22;5615;49.304;10.576;2023-04-01T12:46:06;9.00;99.90
11122;DHT22;5615;49.304;10.576;2023-04-01T12:51:53;9.10;99.90
11122;DHT22;5615;49.304;10.576;2023-04-01T12:57:53;9.00;99.90
11122;DHT22;5615;49.304;10.576;2023-04-01T13:00:33;9.10;99.90
11122;DHT22;5615;49.304;10.576;2023-04-01T13:03:23;9.20;99.90
11122;DHT22;5615;49.304;10.576;2023-04-01T13:06:10;9.20;99.90
11122;DHT22;5615;49.304;10.576;2023-04-01T13:08:43;9.10;99.90
11122;DHT22;5615;49.304;10.576;2023-04-01T13:11:17;8.90;99.90
11122;DHT22;5615;49.304;10.576;2023-04-01T13:17:00;9.00;99.90
11122;DHT22;5615;49.304;10.576;2023-04-01T13:19:37;9.00;99.90
11122;DHT22;5615;49.304;10.576;2023-04-01T13:22:13;8.80;99.90
11122;DHT22;5615;49.304;10.576;2023-04-01T13:24:45;8.90;99.90
11122;DHT22;5615;49.304;10.576;2023-04-01T13:27:17;9.20;99.90
11122;DHT22;5615;49.304;10.576;2023-04-01T13:30:01;9.30;99.90
11122;DHT22;5615;49.304;10.576;2023-04-01T13:32:34;9.40;99.90
11122;DHT22;5615;49.304;10.576;2023-04-01T13:35:15;9.50;99.90
11122;DHT22;5615;49.304;10.576;2023-04-01T13:37:55;9.50;99.90
11122;DHT22;5615;49.304;10.576;2023-04-01T13:40:39;9.80;99.90
11122;DHT22;5615;49.304;10.576;2023-04-01T13:43:12;9.90;99.90
11122;DHT22;5615;49.304;10.576;2023-04-01T13:45:57;9.50;99.90
11122;DHT22;5615;49.304;10.576;2023-04-01T13:48:44;9.40;99.90
11122;DHT22;5615;49.304;10.576;2023-04-01T13:51:31;9.50;99.90
11122;DHT22;5615;49.304;10.576;2023-04-01T13:54:09;9.50;99.90
11122;DHT22;5615;49.304;10.576;2023-04-01T13:56:50;9.50;99.90
11122;DHT22;5615;49.304;10.576;2023-04-01T13:59:40;9.50;99.90
11122;DHT22;5615;49.304;10.576;2023-04-01T14:02:44;9.40;99.90
11122;DHT22;5615;49.304;10.576;2023-04-01T14:05:28;9.50;99.90
11122;DHT22;5615;49.304;10.576;2023-04-01T14:08:07;9.50;99.90
11122;DHT22;5615;49.304;10.576;2023-04-01T14:10:39;9.40;99.90
11122;DHT22;5615;49.304;10.576;2023-04-01T14:13:12;9.40;99.90
11122;DHT22;5615;49.304;10.576;2023-04-01T14:15:50;9.40;99.90
11122;DHT22;5615;49.304;10.576;2023-04-01T14:21:38;9.40;99.90
11122;DHT22;5615;49.304;10.576;2023-04-01T14:24:23;9.40;99.90
11122;DHT22;5615;49.304;10.576;2023-04-01T14:27:37;9.30;99.90
11122;DHT22;5615;49.304;10.576;2023-04-01T14:30:30;9.20;99.90
11122;DHT22;5615;49.304;10.576;2023-04-01T14:33:10;9.20;99.90
11122;DHT22;5615;49.304;10.576;2023-04-01T14:35:46;9.20;99.90
11122;DHT22;5615;49.304;10.576;2023-04-01T14:38:28;9.40;99.90
11122;DHT22;5615;49.304;10.576;2023-04-01T14:41:02;9.40;99.90
11122;DHT22;5615;49.304;10.576;2023-04-01T14:44:05;9.40;99.90
11122;DHT22;5615;49.304;10.576;2023-04-01T14:49:35;9.50;99.90
11122;DHT22;5615;49.304;10.576;2023-04-01T14:52:11;9.40;99.90
11122;DHT22;5615;49.304;10.576;2023-04-01T14:54:41;9.40;99.90
11122;DHT22;5615;49.304;10.576;2023-04-01T14:57:12;9.40;99.90
11122;DHT22;5615;49.304;10.576;2023-04-01T14:59:40;9.50;99.90
11122;DHT22;5615;49.304;10.576;2023-04-01T15:02:21;9.40;99.90
11122;DHT22;5615;49.304;10.576;2023-04-01T15:04:57;9.30;99.90
11122;DHT22;5615;49.304;10.576;2023-04-01T15:07:47;9.30;99.90
11122;DHT22;5615;49.304;10.576;2023-04-01T15:10:30;9.30;99.90
11122;DHT22;5615;49.304;10.576;2023-04-01T15:13:05;9.30;99.90
11122;DHT22;5615;49.304;10.576;2023-04-01T15:15:49;9.30;99.90
11122;DHT22;5615;49.304;10.576;2023-04-01T15:18:30;9.20;99.90
11122;DHT22;5615;49.304;10.576;2023-04-01T15:21:17;9.10;99.90
11122;DHT22;5615;49.304;10.576;2023-04-01T15:23:53;9.00;99.90
11122;DHT22;5615;49.304;10.576;2023-04-01T15:26:33;8.90;99.90
11122;DHT22;5615;49.304;10.576;2023-04-01T15:29:18;9.00;99.90
11122;DHT22;5615;49.304;10.576;2023-04-01T15:31:52;9.00;99.90
11122;DHT22;5615;49.304;10.576;2023-04-01T15:34:32;8.90;99.90
11122;DHT22;5615;49.304;10.576;2023-04-01T15:37:07;8.90;99.90
11122;DHT22;5615;49.304;10.576;2023-04-01T15:39:49;8.90;99.90
11122;DHT22;5615;49.304;10.576;2023-04-01T15:42:28;8.80;99.90
11122;DHT22;5615;49.304;10.576;2023-04-01T15:45:05;8.80;99.90
11122;DHT22;5615;49.304;10.576;2023-04-01T15:47:37;8.80;99.90
11122;DHT22;5615;49.304;10.576;2023-04-01T15:50:34;8.80;99.90
11122;DHT22;5615;49.304;10.576;2023-04-01T15:53:16;8.70;99.90
11122;DHT22;5615;49.304;10.576;2023-04-01T15:55:50;8.60;99.90
11122;DHT22;5615;49.304;10.576;2023-04-01T15:58:38;8.70;99.90
11122;DHT22;5615;49.304;10.576;2023-04-01T16:01:15;8.60;99.90
11122;DHT22;5615;49.304;10.576;2023-04-01T16:03:51;8.60;99.90
11122;DHT22;5615;49.304;10.576;2023-04-01T16:06:35;8.70;99.90
11122;DHT22;5615;49.304;10.576;2023-04-01T16:09:13;8.80;99.90
11122;DHT22;5615;49.304;10.576;2023-04-01T16:11:49;8.70;99.90
11122;DHT22;5615;49.304;10.576;2023-04-01T16:14:31;8.70;99.90
11122;DHT22;5615;49.304;10.576;2023-04-01T16:17:12;8.70;99.90
11122;DHT22;5615;49.304;10.576;2023-04-01T16:19:49;8.70;99.90
11122;DHT22;5615;49.304;10.576;2023-04-01T16:22:20;8.70;99.90
11122;DHT22;5615;49.304;10.576;2023-04-01T16:24:55;8.70;99.90
11122;DHT22;5615;49.304;10.576;2023-04-01T16:27:32;8.80;99.90
11122;DHT22;5615;49.304;10.576;2023-04-01T16:30:03;8.80;99.90
11122;DHT22;5615;49.304;10.576;2023-04-01T16:32:41;8.80;99.90
11122;DHT22;5615;49.304;10.576;2023-04-01T16:35:30;8.80;99.90
11122;DHT22;5615;49.304;10.576;2023-04-01T16:38:05;8.80;99.90
11122;DHT22;5615;49.304;10.576;2023-04-01T16:40:42;8.80;99.90
11122;DHT22;5615;49.304;10.576;2023-04-01T16:43:16;8.80;99.90
11122;DHT22;5615;49.304;10.576;2023-04-01T16:45:53;8.80;99.90
11122;DHT22;5615;49.304;10.576;2023-04-01T16:48:22;8.70;99.90
11122;DHT22;5615;49.304;10.576;2023-04-01T16:50:58;8.80;99.90
11122;DHT22;5615;49.304;10.576;2023-04-01T16:53:34;8.80;99.90
11122;DHT22;5615;49.304;10.576;2023-04-01T16:56:11;8.80;99.90
11122;DHT22;5615;49.304;10.576;2023-04-01T16:58:42;8.80;99.90
11122;DHT22;5615;49.304;10.576;2023-04-01T17:01:13;8.80;99.90
11122;DHT22;5615;49.304;10.576;2023-04-01T17:03:44;8.70;99.90
11122;DHT22;5615;49.304;10.576;2023-04-01T17:06:19;8.70;99.90
11122;DHT22;5615;49.304;10.576;2023-04-01T17:09:07;8.60;99.90
11122;DHT22;5615;49.304;10.576;2023-04-01T17:11:45;8.60;99.90
11122;DHT22;5615;49.304;10.576;2023-04-01T17:14:21;8.60;99.90
11122;DHT22;5615;49.304;10.576;2023-04-01T17:16:59;8.60;99.90
11122;DHT22;5615;49.304;10.576;2023-04-01T17:19:41;8.60;99.90
11122;DHT22;5615;49.304;10.576;2023-04-01T17:22:25;8.60;99.90
11122;DHT22;5615;49.304;10.576;2023-04-01T17:25:13;8.60;99.90
11122;DHT22;5615;49.304;10.576;2023-04-01T17:27:50;8.60;99.90
11122;DHT22;5615;49.304;10.576;2023-04-01T17:30:25;8.60;99.90